Time;durP1;ratioP1;P1;durP2;ratioP2;P2;SDS_P1;SDS_P2;PMS_P1;PMS_P2;Temp;Humidity;BMP_temperature;BMP_pressure;BME280_temperature;BME280_humidity;BME280_pressure;Samples;Min_cycle;Max_cycle;Signal;HPM_P1;HPM_P2
2023/02/09 00:02:02;;;;;;;21.45;15.07;;;17.50;31.60;;;;;;5031607;28;20262;-68
2023/02/09 00:04:29;;;;;;;22.38;16.25;;;17.50;31.60;;;;;;5031386;28;20722;-68
2023/02/09 00:06:56;;;;;;;25.17;16.17;;;17.50;31.60;;;;;;5031521;28;20216;-68
2023/02/09 00:09:23;;;;;;;23.30;15.65;;;17.50;31.60;;;;;;5031155;28;20231;-68
2023/02/09 00:14:36;;;;;;;24.30;15.60;;;17.50;31.60;;;;;;5031551;28;20191;-68
2023/02/09 00:17:04;;;;;;;21.92;15.43;;;17.50;31.60;;;;;;5031286;28;20236;-68
2023/02/09 00:19:31;;;;;;;21.27;15.68;;;17.50;31.60;;;;;;5031653;28;20200;-67
2023/02/09 00:21:59;;;;;;;23.88;15.10;;;17.50;31.70;;;;;;5033092;28;20623;-68
2023/02/09 00:24:26;;;;;;;24.42;15.57;;;17.40;31.60;;;;;;5035258;28;20251;-68
2023/02/09 00:26:53;;;;;;;21.75;15.82;;;17.40;31.60;;;;;;5035175;28;20217;-68
2023/02/09 00:29:22;;;;;;;22.63;16.63;;;17.40;31.60;;;;;;5034625;28;20184;-68
2023/02/09 00:31:51;;;;;;;20.15;14.95;;;17.40;31.60;;;;;;5034830;28;20221;-68
2023/02/09 00:34:19;;;;;;;24.83;17.20;;;17.40;31.60;;;;;;5035214;28;20193;-68
2023/02/09 00:36:46;;;;;;;21.23;15.52;;;17.40;31.60;;;;;;5034989;28;20386;-68
2023/02/09 00:39:13;;;;;;;20.55;15.15;;;17.40;31.60;;;;;;5017277;28;20243;-68
2023/02/09 00:44:40;;;;;;;22.30;16.33;;;17.40;31.60;;;;;;5012737;28;20244;-68
2023/02/09 00:47:09;;;;;;;21.77;15.25;;;17.40;31.60;;;;;;5012013;28;20685;-68
2023/02/09 00:49:38;;;;;;;23.15;15.80;;;17.30;31.60;;;;;;5012330;28;20244;-67
2023/02/09 00:52:06;;;;;;;21.55;15.85;;;17.40;31.60;;;;;;5012240;28;20224;-68
2023/02/09 00:54:33;;;;;;;23.50;15.43;;;17.30;31.50;;;;;;5012445;28;20193;-67
2023/02/09 00:57:04;;;;;;;23.90;16.52;;;17.30;31.50;;;;;;5012233;28;20217;-68
2023/02/09 00:59:32;;;;;;;22.20;16.20;;;17.30;31.60;;;;;;5012085;28;20185;-68
2023/02/09 01:01:59;;;;;;;23.38;16.90;;;17.30;31.50;;;;;;5012117;28;20221;-68
2023/02/09 01:04:28;;;;;;;21.38;15.13;;;17.30;31.60;;;;;;5011991;28;20193;-68
2023/02/09 01:06:55;;;;;;;22.77;16.58;;;17.30;31.60;;;;;;5011991;28;20282;-68
2023/02/09 01:09:22;;;;;;;21.15;15.63;;;17.30;31.60;;;;;;5011622;28;20229;-68
2023/02/09 01:11:49;;;;;;;22.95;15.70;;;17.30;31.60;;;;;;5012005;28;20368;-68
2023/02/09 01:14:17;;;;;;;23.60;16.25;;;17.30;31.60;;;;;;5012100;28;20240;-68
2023/02/09 01:16:44;;;;;;;22.65;15.80;;;17.30;31.60;;;;;;5014124;28;20237;-68
2023/02/09 01:19:13;;;;;;;22.15;15.38;;;17.30;31.60;;;;;;5014434;28;20259;-68
2023/02/09 01:21:42;;;;;;;23.08;14.75;;;17.30;31.60;;;;;;5014132;28;20213;-67
2023/02/09 01:24:13;;;;;;;22.45;15.73;;;17.30;31.60;;;;;;5014166;28;20599;-67
2023/02/09 01:26:41;;;;;;;21.88;15.50;;;17.30;31.60;;;;;;5013758;28;20252;-68
2023/02/09 01:29:11;;;;;;;21.27;14.73;;;17.30;31.60;;;;;;5013452;28;20282;-68
2023/02/09 01:31:39;;;;;;;21.50;15.25;;;17.30;31.60;;;;;;5013924;28;20294;-68
2023/02/09 01:34:06;;;;;;;23.83;15.90;;;17.30;31.60;;;;;;5014215;28;20277;-68
2023/02/09 01:36:33;;;;;;;21.73;15.73;;;17.20;31.50;;;;;;5013735;28;20710;-68
2023/02/09 01:39:03;;;;;;;20.73;15.35;;;17.20;31.50;;;;;;5013849;28;20321;-68
2023/02/09 01:41:31;;;;;;;22.13;15.32;;;17.30;31.60;;;;;;5013853;28;20607;-68
2023/02/09 01:44:01;;;;;;;21.65;15.90;;;17.30;31.60;;;;;;5031642;28;20251;-68
2023/02/09 01:46:30;;;;;;;22.88;16.17;;;17.20;31.50;;;;;;5015878;28;20220;-68
2023/02/09 01:49:04;;;;;;;20.52;15.02;;;17.20;31.60;;;;;;5033152;28;20220;-68
2023/02/09 01:51:34;;;;;;;21.15;15.65;;;17.20;31.60;;;;;;5033682;28;20220;-68
2023/02/09 01:54:07;;;;;;;22.20;15.57;;;17.20;31.60;;;;;;5033319;28;20245;-68
2023/02/09 01:56:36;;;;;;;21.35;15.45;;;17.20;31.60;;;;;;5015955;28;20563;-68
2023/02/09 01:59:04;;;;;;;21.38;15.73;;;17.20;31.60;;;;;;5033420;28;20270;-68
2023/02/09 02:01:31;;;;;;;23.15;16.13;;;17.20;31.60;;;;;;5032748;28;20251;-68
2023/02/09 02:03:58;;;;;;;21.67;15.63;;;17.20;31.60;;;;;;5033383;28;20185;-68
2023/02/09 02:06:25;;;;;;;21.27;15.63;;;17.20;31.60;;;;;;5033395;28;20285;-68
2023/02/09 02:08:57;;;;;;;23.13;16.50;;;17.10;31.50;;;;;;5032677;28;20217;-68
2023/02/09 02:11:28;;;;;;;20.92;15.70;;;17.10;31.50;;;;;;5032996;28;20266;-68
2023/02/09 02:13:56;;;;;;;22.65;15.45;;;17.10;31.50;;;;;;5033127;28;20189;-67
2023/02/09 02:16:42;;;;;;;21.08;15.45;;;17.20;32.20;;;;;;5032756;28;20281;-67
2023/02/09 02:19:38;;;;;;;20.85;15.55;;;17.10;31.50;;;;;;5015018;28;20228;-68
2023/02/09 02:22:35;;;;;;;21.27;15.65;;;17.10;31.50;;;;;;5033251;28;20212;-68
2023/02/09 02:25:35;;;;;;;22.73;15.90;;;17.10;31.50;;;;;;5032683;28;20226;-68
2023/02/09 02:28:26;;;;;;;21.38;15.25;;;17.10;31.50;;;;;;5027508;28;20224;-68
2023/02/09 02:31:10;;;;;;;19.50;14.32;;;17.10;31.60;;;;;;5032550;28;20670;-68
2023/02/09 02:33:48;;;;;;;21.35;15.02;;;17.10;31.60;;;;;;5032247;28;20192;-68
2023/02/09 02:36:24;;;;;;;21.08;14.68;;;17.10;31.60;;;;;;5032803;28;20224;-67
2023/02/09 02:38:57;;;;;;;20.75;15.05;;;17.10;31.60;;;;;;5032142;28;20192;-68
2023/02/09 02:42:46;;;;;;;22.35;15.38;;;17.10;31.60;;;;;;5032353;28;20625;-68
2023/02/09 02:44:19;;;;;;;21.33;14.80;;;17.10;31.60;;;;;;5012149;28;20201;-68
2023/02/09 02:46:50;;;;;;;20.63;15.20;;;17.10;31.60;;;;;;5012789;28;20633;-68
2023/02/09 02:49:25;;;;;;;20.75;14.25;;;17.00;31.50;;;;;;5012366;28;20279;-68
2023/02/09 02:51:56;;;;;;;19.88;14.68;;;17.10;31.60;;;;;;5012338;28;20221;-68
2023/02/09 02:54:28;;;;;;;21.60;15.05;;;17.00;31.50;;;;;;5012590;28;20190;-68
2023/02/09 02:56:57;;;;;;;20.70;14.90;;;17.00;31.60;;;;;;5012430;28;20706;-68
2023/02/09 02:59:28;;;;;;;20.10;14.32;;;17.00;31.50;;;;;;5012534;28;20197;-68
2023/02/09 03:02:03;;;;;;;20.10;14.50;;;17.00;31.60;;;;;;5012569;28;20217;-68
2023/02/09 03:04:34;;;;;;;20.15;14.50;;;17.00;31.50;;;;;;5012546;28;20673;-68
2023/02/09 03:07:04;;;;;;;19.33;14.45;;;17.00;31.60;;;;;;5012489;28;20279;-68
2023/02/09 03:09:31;;;;;;;21.25;14.50;;;17.00;31.60;;;;;;5011740;28;20224;-67
2023/02/09 03:12:09;;;;;;;21.90;15.48;;;17.00;31.60;;;;;;5012082;28;20703;-67
2023/02/09 03:14:42;;;;;;;21.85;14.20;;;17.00;31.60;;;;;;4995616;28;20243;-67
2023/02/09 03:17:24;;;;;;;20.58;14.30;;;17.00;31.60;;;;;;5012082;28;20295;-68
2023/02/09 03:19:59;;;;;;;20.70;14.63;;;17.00;31.60;;;;;;5012552;28;20197;-68
2023/02/09 03:22:33;;;;;;;19.02;14.05;;;17.00;31.70;;;;;;5012418;28;20213;-67
2023/02/09 03:25:05;;;;;;;19.25;13.88;;;17.00;31.70;;;;;;5012137;28;20193;-68
2023/02/09 03:27:36;;;;;;;18.70;13.77;;;17.00;31.70;;;;;;5012091;28;20287;-67
2023/02/09 03:30:07;;;;;;;20.77;13.93;;;17.00;31.70;;;;;;5012019;28;20271;-68
2023/02/09 03:32:37;;;;;;;19.48;13.32;;;17.00;31.70;;;;;;5012017;28;20228;-68
2023/02/09 03:35:08;;;;;;;17.08;12.98;;;17.00;31.70;;;;;;5012280;28;20539;-68
2023/02/09 03:37:35;;;;;;;19.98;14.18;;;16.90;31.70;;;;;;5012014;28;20221;-68
2023/02/09 03:40:02;;;;;;;21.05;13.93;;;17.00;31.70;;;;;;5012123;28;20244;-67
2023/02/09 03:42:29;;;;;;;20.35;13.70;;;16.90;31.70;;;;;;5017535;28;20273;-68
2023/02/09 03:44:57;;;;;;;20.65;13.95;;;16.90;31.60;;;;;;5032036;28;20247;-68
2023/02/09 03:47:24;;;;;;;17.52;12.85;;;16.90;31.70;;;;;;5013844;28;20220;-68
2023/02/09 03:49:51;;;;;;;18.17;12.93;;;16.90;31.70;;;;;;5031142;28;20637;-68
2023/02/09 03:52:19;;;;;;;19.50;13.23;;;16.90;31.70;;;;;;5031275;28;20269;-68
2023/02/09 03:54:46;;;;;;;18.08;13.00;;;16.90;31.70;;;;;;5031480;28;20235;-68
2023/02/09 03:57:13;;;;;;;19.63;12.90;;;16.90;31.70;;;;;;5033303;28;20216;-68
2023/02/09 03:59:40;;;;;;;19.35;12.85;;;16.90;31.70;;;;;;5034948;28;20243;-68
2023/02/09 04:02:09;;;;;;;16.80;12.45;;;16.90;31.70;;;;;;5035174;28;20690;-68
2023/02/09 04:04:37;;;;;;;18.38;13.00;;;16.90;31.80;;;;;;5035593;28;20708;-67
2023/02/09 04:07:04;;;;;;;18.13;12.68;;;16.90;31.80;;;;;;5035167;28;20246;-68
2023/02/09 04:09:33;;;;;;;17.75;12.77;;;16.90;31.90;;;;;;5035024;28;20278;-67
2023/02/09 04:12:00;;;;;;;18.08;13.38;;;16.90;31.80;;;;;;5035042;28;20220;-68
2023/02/09 04:14:27;;;;;;;18.42;12.90;;;16.90;31.80;;;;;;5035380;28;20197;-67
2023/02/09 04:16:54;;;;;;;20.95;11.85;;;16.90;31.80;;;;;;5035095;28;20232;-68
2023/02/09 04:19:21;;;;;;;17.25;12.15;;;16.90;31.80;;;;;;5035057;28;20230;-68
2023/02/09 04:21:49;;;;;;;18.08;12.70;;;16.90;31.90;;;;;;5035272;28;20220;-67
2023/02/09 04:24:16;;;;;;;19.05;12.85;;;16.90;31.90;;;;;;5035267;28;20231;-67
2023/02/09 04:26:44;;;;;;;16.42;12.27;;;16.90;31.90;;;;;;5035351;28;20213;-68
2023/02/09 04:29:11;;;;;;;19.05;13.38;;;16.90;31.90;;;;;;5034560;28;20258;-68
2023/02/09 04:31:38;;;;;;;17.73;12.15;;;16.90;31.90;;;;;;5034487;28;20220;-68
2023/02/09 04:34:05;;;;;;;14.10;11.52;;;16.90;31.90;;;;;;5034695;28;20196;-68
2023/02/09 04:36:32;;;;;;;15.85;11.95;;;16.80;31.80;;;;;;5035120;28;20216;-67
2023/02/09 04:38:59;;;;;;;16.33;11.55;;;16.90;31.90;;;;;;5033708;28;20200;-67
2023/02/09 04:41:26;;;;;;;17.23;11.35;;;16.90;31.90;;;;;;5033507;28;20274;-68
2023/02/09 04:43:55;;;;;;;13.75;11.15;;;16.80;31.80;;;;;;5041579;28;20188;-67
2023/02/09 04:46:22;;;;;;;14.57;11.45;;;16.80;31.90;;;;;;5054690;28;20215;-68
2023/02/09 04:48:49;;;;;;;16.25;11.50;;;16.80;31.90;;;;;;5054188;28;20268;-68
2023/02/09 04:51:16;;;;;;;16.20;12.55;;;16.80;31.90;;;;;;5053695;28;20246;-68
2023/02/09 04:53:43;;;;;;;14.80;10.98;;;16.80;32.00;;;;;;5054364;28;20245;-68
2023/02/09 04:56:14;;;;;;;16.33;11.20;;;16.80;32.00;;;;;;5054597;28;20200;-68
2023/02/09 05:01:27;;;;;;;18.27;11.35;;;16.80;32.00;;;;;;5054628;28;20800;-68
2023/02/09 05:03:54;;;;;;;15.80;11.15;;;16.80;32.00;;;;;;5054372;28;20249;-68
2023/02/09 05:06:23;;;;;;;13.57;9.77;;;16.80;32.10;;;;;;5054231;28;20188;-68
2023/02/09 05:08:50;;;;;;;15.63;10.57;;;16.80;32.10;;;;;;5053518;28;20293;-68
2023/02/09 05:11:17;;;;;;;17.52;11.63;;;16.80;32.10;;;;;;5054144;28;20649;-67
2023/02/09 05:13:44;;;;;;;14.20;10.00;;;16.80;32.10;;;;;;5054138;28;20192;-68
2023/02/09 05:16:16;;;;;;;13.98;10.30;;;16.80;32.20;;;;;;5053744;28;20270;-68
2023/02/09 05:18:44;;;;;;;17.10;11.13;;;16.80;32.20;;;;;;5054059;28;20195;-68
2023/02/09 05:21:13;;;;;;;13.60;9.73;;;16.80;32.20;;;;;;5053790;28;20196;-68
2023/02/09 05:23:40;;;;;;;15.98;10.77;;;16.80;32.20;;;;;;5053992;28;20194;-68
2023/02/09 05:26:07;;;;;;;13.43;9.45;;;16.80;32.20;;;;;;5054289;28;20188;-68
2023/02/09 05:28:34;;;;;;;15.05;10.05;;;16.80;32.20;;;;;;5036057;28;20188;-68
2023/02/09 05:31:01;;;;;;;14.57;10.23;;;16.80;32.20;;;;;;5053791;28;20453;-67
2023/02/09 05:33:28;;;;;;;14.35;10.15;;;16.80;32.30;;;;;;5053345;28;20269;-67
2023/02/09 05:35:56;;;;;;;13.95;10.02;;;16.80;32.30;;;;;;5035775;28;20234;-68
2023/02/09 05:38:24;;;;;;;14.43;9.43;;;16.80;32.30;;;;;;5053741;28;20211;-68
2023/02/09 05:40:51;;;;;;;12.85;9.07;;;16.70;32.20;;;;;;5053702;28;20241;-67
2023/02/09 05:43:19;;;;;;;14.00;9.45;;;16.80;32.40;;;;;;5041396;28;20282;-68
2023/02/09 05:45:46;;;;;;;14.32;9.15;;;16.80;32.40;;;;;;5033728;28;20239;-68
2023/02/09 05:48:13;;;;;;;13.80;9.57;;;16.80;32.40;;;;;;5033238;28;20212;-67
2023/02/09 05:50:40;;;;;;;11.10;8.57;;;16.80;32.40;;;;;;5033234;28;20220;-68
2023/02/09 05:53:09;;;;;;;14.20;9.85;;;16.80;32.50;;;;;;5033375;28;20216;-68
2023/02/09 05:55:36;;;;;;;14.30;9.45;;;16.80;32.50;;;;;;5033548;28;20192;-68
2023/02/09 05:58:03;;;;;;;13.38;9.18;;;16.80;32.50;;;;;;5033214;28;20271;-68
2023/02/09 06:00:30;;;;;;;13.77;9.05;;;16.90;32.60;;;;;;5033737;28;20188;-67
2023/02/09 06:02:58;;;;;;;15.60;9.13;;;16.90;32.60;;;;;;5033565;28;20644;-67
2023/02/09 06:05:26;;;;;;;12.30;8.88;;;16.90;32.70;;;;;;5033227;28;20243;-68
2023/02/09 06:07:53;;;;;;;13.05;9.27;;;16.90;32.70;;;;;;5033244;28;20230;-68
2023/02/09 06:10:21;;;;;;;13.60;8.70;;;17.00;32.80;;;;;;5033095;28;20239;-68
2023/02/09 06:12:49;;;;;;;11.38;8.15;;;17.00;32.80;;;;;;5033114;28;20216;-68
2023/02/09 06:15:16;;;;;;;13.90;8.52;;;17.00;32.80;;;;;;5015443;28;20188;-67
2023/02/09 06:17:43;;;;;;;13.30;8.85;;;17.00;32.80;;;;;;5032779;28;20593;-68
2023/02/09 06:20:11;;;;;;;14.52;9.35;;;17.10;32.90;;;;;;5032468;28;20200;-68
2023/02/09 06:22:41;;;;;;;10.48;8.05;;;17.00;32.80;;;;;;5033237;28;20682;-68
2023/02/09 06:25:08;;;;;;;13.68;8.95;;;17.10;33.00;;;;;;5032523;28;20188;-68
2023/02/09 06:27:36;;;;;;;12.35;9.02;;;17.10;32.90;;;;;;5032020;28;20216;-68
2023/02/09 06:30:05;;;;;;;11.32;8.60;;;17.10;33.00;;;;;;5032250;28;20567;-68
2023/02/09 06:32:32;;;;;;;12.40;8.68;;;17.10;33.10;;;;;;5032512;28;20278;-68
2023/02/09 06:34:59;;;;;;;13.95;8.80;;;17.20;33.10;;;;;;5032678;28;20188;-68
2023/02/09 06:37:26;;;;;;;11.60;8.55;;;17.20;33.10;;;;;;5032756;28;20259;-68
2023/02/09 06:39:53;;;;;;;11.70;8.07;;;17.20;33.10;;;;;;5032401;28;20193;-68
2023/02/09 06:42:20;;;;;;;11.00;8.70;;;17.20;33.20;;;;;;5032864;28;20216;-68
2023/02/09 06:44:49;;;;;;;10.65;8.27;;;17.20;33.20;;;;;;5015208;28;20196;-68
2023/02/09 06:47:16;;;;;;;12.50;8.50;;;17.30;33.20;;;;;;5032303;28;20231;-68
2023/02/09 06:49:43;;;;;;;12.10;7.97;;;17.30;33.30;;;;;;5032266;28;20266;-68
2023/02/09 06:52:10;;;;;;;13.63;8.52;;;17.30;33.30;;;;;;5032689;28;20228;-68
2023/02/09 06:54:37;;;;;;;10.30;8.02;;;17.30;33.40;;;;;;5031954;28;20243;-67
2023/02/09 06:57:06;;;;;;;10.80;8.65;;;17.30;33.30;;;;;;5032569;28;20220;-68
2023/02/09 06:59:33;;;;;;;10.00;7.95;;;17.40;33.50;;;;;;5031915;28;20207;-68
2023/02/09 07:02:01;;;;;;;11.30;8.23;;;17.40;33.50;;;;;;5032161;28;20697;-68
2023/02/09 07:04:28;;;;;;;11.05;8.00;;;17.40;33.50;;;;;;5032379;28;20246;-68
2023/02/09 07:06:55;;;;;;;11.95;8.10;;;17.40;33.50;;;;;;5032071;28;20763;-68
2023/02/09 07:09:22;;;;;;;10.57;8.32;;;17.40;33.50;;;;;;5031683;28;20772;-68
2023/02/09 07:11:50;;;;;;;11.00;8.15;;;17.40;33.50;;;;;;5032150;28;20215;-68
2023/02/09 07:14:17;;;;;;;11.63;7.53;;;17.40;33.50;;;;;;5031986;28;20246;-68
2023/02/09 07:16:44;;;;;;;12.88;8.40;;;17.50;33.50;;;;;;5031829;28;20713;-68
2023/02/09 07:19:13;;;;;;;10.63;8.40;;;17.50;33.50;;;;;;5031737;28;20197;-68
2023/02/09 07:21:40;;;;;;;10.48;7.70;;;17.50;33.50;;;;;;5032183;28;20224;-68
2023/02/09 07:24:07;;;;;;;13.55;8.02;;;17.50;33.60;;;;;;5032101;28;20238;-68
2023/02/09 07:26:34;;;;;;;10.98;8.00;;;17.50;33.60;;;;;;5032019;28;20255;-68
2023/02/09 07:29:01;;;;;;;10.75;7.90;;;17.50;34.30;;;;;;5031311;28;20192;-68
2023/02/09 07:31:28;;;;;;;11.65;7.95;;;17.60;33.70;;;;;;5036023;28;20216;-68
2023/02/09 07:33:56;;;;;;;10.38;7.95;;;17.60;33.70;;;;;;5038929;28;20537;-68
2023/02/09 07:36:24;;;;;;;15.02;8.35;;;17.60;33.70;;;;;;5037955;28;20184;-67
2023/02/09 07:38:51;;;;;;;9.95;7.60;;;17.60;33.70;;;;;;5037859;28;20188;-67
2023/02/09 07:41:20;;;;;;;11.40;7.55;;;17.60;33.70;;;;;;5038348;28;20192;-67
2023/02/09 07:43:47;;;;;;;11.35;7.30;;;17.60;33.70;;;;;;5038428;28;20195;-67
2023/02/09 07:46:17;;;;;;;10.38;7.65;;;17.60;33.70;;;;;;5023421;28;20733;-68
2023/02/09 07:48:44;;;;;;;10.93;7.07;;;17.70;33.80;;;;;;5025397;28;20620;-68
2023/02/09 07:51:13;;;;;;;9.75;7.05;;;17.70;33.80;;;;;;5034004;28;20663;-68
2023/02/09 07:53:42;;;;;;;10.63;7.93;;;17.70;33.90;;;;;;5037500;28;20271;-68
2023/02/09 07:56:09;;;;;;;10.15;7.72;;;17.70;33.80;;;;;;5023816;28;20619;-68
2023/02/09 07:58:36;;;;;;;12.57;8.07;;;17.70;33.90;;;;;;5026569;28;20640;-67
2023/02/09 08:01:05;;;;;;;10.55;7.63;;;17.70;33.90;;;;;;5034874;28;20607;-67
2023/02/09 08:03:34;;;;;;;11.40;7.80;;;17.70;33.90;;;;;;5036136;28;20220;-67
2023/02/09 08:06:04;;;;;;;11.05;8.20;;;17.70;33.90;;;;;;5036277;28;20192;-68
2023/02/09 08:08:31;;;;;;;10.23;7.80;;;17.70;33.90;;;;;;5033899;28;20219;-68
2023/02/09 08:11:03;;;;;;;9.88;7.53;;;17.80;34.00;;;;;;5032783;28;20231;-68
2023/02/09 08:13:34;;;;;;;12.68;8.07;;;17.80;34.00;;;;;;5034452;28;20228;-68
2023/02/09 08:16:04;;;;;;;14.40;8.10;;;17.80;34.00;;;;;;5036045;28;20298;-68
2023/02/09 08:18:36;;;;;;;10.80;7.60;;;17.80;34.00;;;;;;5020563;28;20216;-68
2023/02/09 08:21:05;;;;;;;11.23;8.40;;;17.80;34.00;;;;;;5041319;28;20200;-68
2023/02/09 08:23:35;;;;;;;13.02;8.57;;;17.90;34.00;;;;;;5036586;28;20733;-68
2023/02/09 08:26:06;;;;;;;12.65;8.55;;;17.90;34.10;;;;;;5027306;28;20197;-69
2023/02/09 08:28:34;;;;;;;12.95;8.13;;;17.90;34.10;;;;;;5025194;28;20267;-68
2023/02/09 08:31:01;;;;;;;15.68;8.68;;;17.90;34.10;;;;;;5029693;28;20269;-70
2023/02/09 08:33:28;;;;;;;18.05;8.65;;;17.90;34.20;;;;;;5001706;28;20262;-70
2023/02/09 08:35:56;;;;;;;14.43;9.00;;;17.90;34.40;;;;;;5034334;28;20653;-70
2023/02/09 08:38:23;;;;;;;13.05;8.63;;;18.00;34.40;;;;;;5036154;28;20220;-69
2023/02/09 08:40:50;;;;;;;13.32;8.02;;;18.00;34.30;;;;;;5035886;28;20663;-69
2023/02/09 08:43:18;;;;;;;13.05;9.00;;;18.00;34.30;;;;;;5033305;28;20224;-69
2023/02/09 08:45:45;;;;;;;11.05;8.60;;;18.00;34.30;;;;;;5032526;28;20196;-68
2023/02/09 08:48:13;;;;;;;13.60;8.68;;;18.00;34.30;;;;;;5032324;28;21077;-71
2023/02/09 08:50:40;;;;;;;12.30;8.95;;;18.00;34.30;;;;;;5015743;28;20216;-68
2023/02/09 08:53:07;;;;;;;11.95;8.73;;;18.00;34.30;;;;;;5032356;28;20343;-68
2023/02/09 08:55:37;;;;;;;13.68;8.40;;;18.10;34.40;;;;;;5032447;28;20712;-69
2023/02/09 08:58:06;;;;;;;13.48;9.18;;;18.10;34.30;;;;;;5032505;28;20307;-68
2023/02/09 09:00:35;;;;;;;19.23;9.15;;;18.10;34.30;;;;;;5031732;28;20220;-68
2023/02/09 09:03:05;;;;;;;15.32;8.50;;;18.10;34.30;;;;;;5029212;28;20775;-68
2023/02/09 09:05:35;;;;;;;11.82;8.55;;;18.00;34.30;;;;;;5032128;28;20279;-68
2023/02/09 09:08:02;;;;;;;13.60;8.90;;;18.10;34.40;;;;;;5031866;28;20239;-69
2023/02/09 09:10:29;;;;;;;13.25;9.23;;;18.10;34.40;;;;;;5032743;28;20262;-68
2023/02/09 09:12:57;;;;;;;12.40;8.60;;;18.10;34.40;;;;;;5032003;28;20279;-69
2023/02/09 09:15:24;;;;;;;13.40;8.70;;;18.10;34.40;;;;;;5032212;28;20725;-68
2023/02/09 09:17:53;;;;;;;14.18;9.27;;;18.10;34.50;;;;;;5031900;28;20791;-69
2023/02/09 09:20:21;;;;;;;11.05;8.60;;;18.10;34.50;;;;;;5028334;28;20558;-68
2023/02/09 09:22:48;;;;;;;12.20;8.93;;;18.10;34.50;;;;;;5032318;28;20301;-69
2023/02/09 09:25:15;;;;;;;13.50;9.20;;;18.10;34.50;;;;;;5031908;28;20237;-68
2023/02/09 09:27:43;;;;;;;12.43;8.50;;;18.20;34.70;;;;;;5031172;28;20224;-69
2023/02/09 09:30:12;;;;;;;12.82;9.23;;;18.20;34.70;;;;;;5032213;28;20239;-72
2023/02/09 09:32:39;;;;;;;12.18;8.77;;;18.20;34.80;;;;;;5031888;28;20224;-69
2023/02/09 09:35:09;;;;;;;15.27;8.40;;;18.20;34.70;;;;;;5031979;28;20208;-70
2023/02/09 09:37:36;;;;;;;13.95;8.68;;;18.30;35.00;;;;;;5031474;28;20224;-68
2023/02/09 09:40:04;;;;;;;11.80;8.98;;;18.30;34.90;;;;;;5031623;28;20230;-69
2023/02/09 09:42:34;;;;;;;11.57;8.13;;;18.30;34.80;;;;;;5031405;28;20663;-70
2023/02/09 09:45:03;;;;;;;11.15;8.77;;;18.30;35.00;;;;;;5032469;28;20188;-69
2023/02/09 09:47:37;;;;;;;16.45;8.23;;;18.30;35.00;;;;;;5031150;28;20293;-70
2023/02/09 09:50:15;;;;;;;11.25;8.55;;;18.30;34.90;;;;;;5031335;28;20596;-68
2023/02/09 09:52:46;;;;;;;11.68;9.15;;;18.30;34.80;;;;;;5031023;28;20220;-68
2023/02/09 09:55:22;;;;;;;13.18;8.95;;;18.30;34.70;;;;;;5026837;28;20262;-69
2023/02/09 09:57:51;;;;;;;11.75;9.10;;;18.40;34.80;;;;;;5031531;28;20219;-69
2023/02/09 10:00:21;;;;;;;14.05;9.13;;;18.30;34.70;;;;;;5013844;28;20197;-70
2023/02/09 10:02:49;;;;;;;13.10;9.27;;;18.40;35.10;;;;;;5031304;28;20224;-70
2023/02/09 10:05:21;;;;;;;15.23;8.80;;;18.40;35.10;;;;;;5031260;28;20246;-69
2023/02/09 10:07:57;;;;;;;14.60;8.48;;;18.40;35.10;;;;;;4981565;28;20227;-70
2023/02/09 10:10:38;;;;;;;16.95;9.27;;;18.40;35.10;;;;;;5031144;28;20208;-67
2023/02/09 10:13:14;;;;;;;14.00;9.15;;;18.40;35.10;;;;;;5027514;28;20223;-68
2023/02/09 10:15:42;;;;;;;14.40;8.77;;;18.50;35.20;;;;;;5012748;28;20239;-70
2023/02/09 10:18:14;;;;;;;16.70;9.40;;;18.50;35.20;;;;;;5031360;28;20220;-67
2023/02/09 10:20:47;;;;;;;14.20;8.85;;;18.50;35.20;;;;;;5030967;28;20326;-70
2023/02/09 10:23:19;;;;;;;11.77;7.80;;;18.50;35.20;;;;;;5029413;28;20220;-70
2023/02/09 10:26:01;;;;;;;12.70;8.15;;;18.50;35.30;;;;;;4989598;28;20200;-68
2023/02/09 10:28:32;;;;;;;13.90;7.82;;;18.50;35.30;;;;;;5030993;28;20709;-69
2023/02/09 10:31:02;;;;;;;14.13;8.82;;;18.50;35.40;;;;;;5029609;28;20725;-69
2023/02/09 10:33:39;;;;;;;12.20;8.25;;;18.50;35.50;;;;;;5030548;28;20227;-69
2023/02/09 10:36:24;;;;;;;15.52;8.48;;;18.60;35.50;;;;;;5028609;28;20246;-69
2023/02/09 10:38:53;;;;;;;13.50;8.38;;;18.60;35.50;;;;;;5030254;28;20228;-67
2023/02/09 10:41:23;;;;;;;12.23;7.65;;;18.60;35.50;;;;;;5030610;28;20247;-69
2023/02/09 10:43:53;;;;;;;13.98;8.20;;;18.60;35.50;;;;;;5030417;28;20660;-69
2023/02/09 10:46:21;;;;;;;13.65;8.38;;;18.60;35.50;;;;;;5030551;28;20197;-68
2023/02/09 10:48:50;;;;;;;11.13;7.57;;;18.60;35.50;;;;;;5030461;28;20223;-69
2023/02/09 10:51:28;;;;;;;14.50;8.27;;;18.60;35.60;;;;;;5030330;28;20220;-70
2023/02/09 10:54:02;;;;;;;14.63;7.93;;;18.60;35.60;;;;;;5030331;28;20216;-68
2023/02/09 10:56:36;;;;;;;17.02;9.05;;;18.60;35.60;;;;;;5030180;28;20237;-70
2023/02/09 10:59:14;;;;;;;10.15;7.32;;;18.60;35.70;;;;;;5030050;28;20599;-69
2023/02/09 11:01:44;;;;;;;13.27;8.23;;;18.70;35.80;;;;;;5030339;28;20323;-70
2023/02/09 11:04:23;;;;;;;15.90;8.00;;;18.60;35.70;;;;;;5030521;28;20262;-69
2023/02/09 11:06:55;;;;;;;14.50;7.97;;;18.60;35.70;;;;;;5022422;28;20200;-69
2023/02/09 11:09:28;;;;;;;14.43;7.88;;;18.60;35.80;;;;;;5030295;28;20251;-68
2023/02/09 11:11:56;;;;;;;16.75;9.07;;;18.70;35.80;;;;;;5021764;28;20223;-69
2023/02/09 11:14:24;;;;;;;15.80;8.07;;;18.70;35.80;;;;;;5024855;28;20217;-69
2023/02/09 11:17:16;;;;;;;17.08;7.72;;;18.70;35.80;;;;;;5027840;28;20669;-68
2023/02/09 11:20:03;;;;;;;15.05;8.02;;;18.70;35.80;;;;;;5029685;28;20232;-68
2023/02/09 11:22:50;;;;;;;10.48;7.18;;;18.70;35.80;;;;;;5028599;28;20279;-68
2023/02/09 11:25:23;;;;;;;15.43;7.65;;;18.70;35.80;;;;;;5029224;28;20311;-68
2023/02/09 11:28:28;;;;;;;11.15;7.53;;;18.70;35.90;;;;;;5029720;28;20529;-69
2023/02/09 11:31:10;;;;;;;10.48;6.78;;;18.70;36.00;;;;;;4930534;29;20239;-68
2023/02/09 11:33:48;;;;;;;14.25;8.40;;;18.70;36.00;;;;;;4930041;29;20215;-70
2023/02/09 11:36:27;;;;;;;10.25;7.57;;;18.80;36.10;;;;;;4930835;29;20235;-71
2023/02/09 11:38:59;;;;;;;13.88;7.88;;;18.80;36.10;;;;;;4930690;29;20230;-68
2023/02/09 11:44:26;;;;;;;10.60;8.02;;;18.80;36.30;;;;;;4931467;29;20330;-67
2023/02/09 11:47:03;;;;;;;12.32;7.72;;;18.80;36.20;;;;;;4931697;29;20204;-67
2023/02/09 11:49:37;;;;;;;13.43;6.95;;;18.80;36.10;;;;;;4924815;29;20228;-67
2023/02/09 11:52:09;;;;;;;10.35;7.45;;;18.80;36.20;;;;;;4925974;29;20565;-68
2023/02/09 11:54:39;;;;;;;15.52;7.85;;;18.80;36.30;;;;;;4927225;29;20224;-67
2023/02/09 11:57:17;;;;;;;12.75;7.43;;;18.80;36.30;;;;;;4916445;29;20729;-68
2023/02/09 11:59:55;;;;;;;13.95;7.30;;;18.80;36.30;;;;;;4924814;29;20239;-68
2023/02/09 12:02:41;;;;;;;8.90;7.20;;;18.80;36.20;;;;;;4921765;29;20213;-68
2023/02/09 12:05:13;;;;;;;12.27;7.03;;;18.70;36.10;;;;;;4925074;29;20204;-67
2023/02/09 12:07:47;;;;;;;11.57;7.70;;;18.70;36.20;;;;;;4970638;28;20670;-67
2023/02/09 12:10:26;;;;;;;9.38;6.75;;;18.70;36.10;;;;;;5026582;28;20669;-67
2023/02/09 12:12:59;;;;;;;11.07;6.88;;;18.70;36.20;;;;;;5027382;28;20267;-68
2023/02/09 12:15:31;;;;;;;12.88;7.55;;;18.70;36.20;;;;;;5027128;28;20215;-67
2023/02/09 12:18:03;;;;;;;10.73;7.07;;;18.60;36.20;;;;;;5028542;28;20224;-68
2023/02/09 12:20:45;;;;;;;12.38;7.20;;;18.60;36.20;;;;;;5031824;28;20216;-67
2023/02/09 12:23:18;;;;;;;10.63;6.80;;;18.60;36.20;;;;;;5032407;28;20255;-67
2023/02/09 12:25:52;;;;;;;12.55;7.57;;;18.60;36.30;;;;;;5029522;28;20226;-67
2023/02/09 12:28:44;;;;;;;8.35;6.50;;;18.60;36.30;;;;;;5031827;28;20252;-68
2023/02/09 12:31:24;;;;;;;12.15;8.25;;;18.60;36.30;;;;;;5029730;28;20228;-67
2023/02/09 12:34:22;;;;;;;12.15;7.40;;;18.60;36.50;;;;;;5029288;28;20231;-68
2023/02/09 12:37:18;;;;;;;10.18;7.00;;;18.60;36.60;;;;;;5028966;28;20208;-68
2023/02/09 12:40:29;;;;;;;10.70;7.22;;;18.60;36.80;;;;;;5031326;28;20255;-68
2023/02/09 12:43:27;;;;;;;9.73;7.18;;;18.60;36.90;;;;;;5028984;28;20345;-67
2023/02/09 12:46:20;;;;;;;9.65;7.07;;;18.60;36.90;;;;;;5031272;28;20232;-69
2023/02/09 12:48:54;;;;;;;10.15;7.10;;;18.60;36.90;;;;;;5025541;28;20220;-67
2023/02/09 12:51:53;;;;;;;9.25;7.03;;;18.70;37.00;;;;;;5031176;28;20234;-70
2023/02/09 12:54:35;;;;;;;9.40;7.10;;;18.70;37.00;;;;;;5028281;28;20697;-68
2023/02/09 12:57:48;;;;;;;11.68;6.88;;;18.70;37.00;;;;;;5032903;28;20188;-69
2023/02/09 13:00:35;;;;;;;11.50;6.90;;;18.70;37.00;;;;;;4992589;28;20242;-68
2023/02/09 13:03:12;;;;;;;11.32;6.95;;;18.70;37.00;;;;;;4933582;29;20235;-68
2023/02/09 13:05:45;;;;;;;12.18;6.80;;;18.70;37.10;;;;;;4930897;29;20204;-67